Time;durP1;ratioP1;P1;durP2;ratioP2;P2;SDS_P1;SDS_P2;PMS_P1;PMS_P2;Temp;Humidity;BMP_temperature;BMP_pressure;BME280_temperature;BME280_humidity;BME280_pressure;Samples;Min_cycle;Max_cycle;Signal;HPM_P1;HPM_P2
2021/05/26 00:01:37;;;;;;;13.00;4.93;;;8.30;3.70;;;;;;5071351;28;20239;-58
2021/05/26 00:04:04;;;;;;;8.27;4.63;;;8.30;3.90;;;;;;5071355;28;20216;-57
2021/05/26 00:06:31;;;;;;;8.57;4.73;;;8.20;24.40;;;;;;5071035;28;20216;-57
2021/05/26 00:08:57;;;;;;;8.23;4.77;;;8.10;34.60;;;;;;5071625;28;20216;-58
2021/05/26 00:11:23;;;;;;;8.67;4.67;;;8.10;38.90;;;;;;5071021;28;20205;-57
2021/05/26 00:13:49;;;;;;;8.20;4.43;;;8.10;31.10;;;;;;5071433;28;20209;-58
2021/05/26 00:16:16;;;;;;;5.67;4.67;;;8.00;29.20;;;;;;5072009;28;20224;-58
2021/05/26 00:18:42;;;;;;;8.67;5.10;;;7.90;34.60;;;;;;5071028;28;20215;-57
2021/05/26 00:21:09;;;;;;;8.30;5.23;;;7.80;56.60;;;;;;5071130;28;20724;-58
2021/05/26 00:23:37;;;;;;;9.90;5.53;;;7.80;95.00;;;;;;5071346;28;20205;-58
2021/05/26 00:26:03;;;;;;;15.50;6.03;;;7.70;99.90;;;;;;5070401;28;20718;-55
2021/05/26 00:28:29;;;;;;;6.47;5.17;;;7.70;99.90;;;;;;5071244;28;20205;-58
2021/05/26 00:30:58;;;;;;;9.30;5.60;;;7.70;99.90;;;;;;5071145;28;20204;-55
2021/05/26 00:33:24;;;;;;;11.07;5.30;;;7.70;99.90;;;;;;5070359;28;20205;-59
2021/05/26 00:35:51;;;;;;;9.80;5.47;;;7.60;99.90;;;;;;5071358;28;20233;-58
2021/05/26 00:38:17;;;;;;;9.47;5.50;;;7.60;99.90;;;;;;5071475;28;20234;-58
2021/05/26 00:40:45;;;;;;;11.10;5.70;;;7.60;99.90;;;;;;5069249;28;20274;-58
2021/05/26 00:43:12;;;;;;;12.10;5.23;;;7.50;99.90;;;;;;5071003;28;20212;-58
2021/05/26 00:45:38;;;;;;;10.70;5.33;;;7.50;99.90;;;;;;5070484;28;20266;-59
2021/05/26 00:48:05;;;;;;;14.50;5.60;;;7.50;99.90;;;;;;5071136;28;20630;-58
2021/05/26 00:50:33;;;;;;;8.77;5.93;;;7.40;99.90;;;;;;5071567;28;20215;-56
2021/05/26 00:53:00;;;;;;;9.50;5.80;;;7.40;99.90;;;;;;5071058;28;20643;-58
2021/05/26 00:55:27;;;;;;;8.40;6.30;;;7.40;99.90;;;;;;5070660;28;20232;-58
2021/05/26 00:57:55;;;;;;;13.10;6.70;;;7.40;99.90;;;;;;5069463;28;20208;-58
2021/05/26 01:00:25;;;;;;;9.60;6.27;;;7.40;99.90;;;;;;5071103;28;20299;-57
2021/05/26 01:02:51;;;;;;;10.20;6.57;;;7.40;99.90;;;;;;5071015;28;20251;-58
2021/05/26 01:05:19;;;;;;;7.97;5.73;;;7.50;99.90;;;;;;5070525;28;20720;-58
2021/05/26 01:07:45;;;;;;;14.03;5.97;;;7.50;99.90;;;;;;5070473;28;20619;-58
2021/05/26 01:10:14;;;;;;;10.47;5.83;;;7.40;99.90;;;;;;5070517;28;20205;-58
2021/05/26 01:12:40;;;;;;;9.07;5.90;;;7.50;99.90;;;;;;5071049;28;20205;-55
2021/05/26 01:15:09;;;;;;;11.13;6.13;;;7.50;99.90;;;;;;5069404;28;20236;-57
2021/05/26 01:17:36;;;;;;;9.93;5.93;;;7.50;99.90;;;;;;5070815;28;20212;-58
2021/05/26 01:20:04;;;;;;;12.20;7.37;;;7.50;99.90;;;;;;5070789;28;20205;-58
2021/05/26 01:22:31;;;;;;;10.13;6.80;;;7.50;99.90;;;;;;5070731;28;20205;-57
2021/05/26 01:24:58;;;;;;;12.23;6.87;;;7.50;99.90;;;;;;5070882;28;20221;-58
2021/05/26 01:27:24;;;;;;;9.47;6.87;;;7.50;99.90;;;;;;5073932;28;20212;-58
2021/05/26 01:29:51;;;;;;;13.67;6.87;;;7.60;99.90;;;;;;5074422;28;20212;-58
2021/05/26 01:32:17;;;;;;;10.33;7.30;;;7.60;99.90;;;;;;5072440;28;20902;-59
2021/05/26 01:34:43;;;;;;;14.57;7.53;;;7.70;99.90;;;;;;5073641;28;20229;-58
2021/05/26 01:37:09;;;;;;;15.37;7.70;;;7.80;99.90;;;;;;5073326;28;20204;-58
2021/05/26 01:39:36;;;;;;;19.43;7.67;;;7.80;99.90;;;;;;5073869;28;20258;-58
2021/05/26 01:42:03;;;;;;;11.10;7.30;;;7.90;99.90;;;;;;5074013;28;20212;-58
2021/05/26 01:44:33;;;;;;;13.63;7.50;;;7.90;99.90;;;;;;5074057;28;20275;-57
2021/05/26 01:47:00;;;;;;;16.30;7.63;;;7.90;99.90;;;;;;5073505;28;20210;-58
2021/05/26 01:49:26;;;;;;;13.33;8.20;;;8.00;99.90;;;;;;5072330;28;20677;-57
2021/05/26 01:51:52;;;;;;;15.60;7.60;;;8.00;99.90;;;;;;5073199;28;20296;-57
2021/05/26 01:54:18;;;;;;;18.93;8.10;;;8.10;99.90;;;;;;5074000;28;20747;-57
2021/05/26 01:56:45;;;;;;;14.53;8.10;;;8.10;99.90;;;;;;5074083;28;20616;-58
2021/05/26 01:59:12;;;;;;;17.97;7.97;;;8.10;99.90;;;;;;5074426;28;20673;-58
2021/05/26 02:01:38;;;;;;;16.97;8.73;;;8.10;99.90;;;;;;5074128;28;20205;-58
2021/05/26 02:04:04;;;;;;;15.93;7.73;;;8.10;99.90;;;;;;5074392;28;20205;-58
2021/05/26 02:06:32;;;;;;;12.83;7.77;;;8.10;99.90;;;;;;5073571;28;20229;-58
2021/05/26 02:08:58;;;;;;;13.70;7.20;;;8.20;99.90;;;;;;5071082;28;20205;-58
2021/05/26 02:14:10;;;;;;;19.20;7.83;;;8.30;99.90;;;;;;5073008;28;20293;-59
2021/05/26 02:16:37;;;;;;;17.00;7.97;;;8.30;99.90;;;;;;5072763;28;20334;-58
2021/05/26 02:19:04;;;;;;;17.10;7.53;;;8.30;99.90;;;;;;5073729;28;20209;-59
2021/05/26 02:21:30;;;;;;;14.93;7.63;;;8.30;99.90;;;;;;5073037;28;20205;-58
2021/05/26 02:23:57;;;;;;;14.43;7.57;;;8.30;99.90;;;;;;5074873;28;20265;-58
2021/05/26 02:26:24;;;;;;;13.33;7.53;;;8.30;99.90;;;;;;5073319;28;20232;-59
2021/05/26 02:28:50;;;;;;;20.63;8.70;;;8.30;99.90;;;;;;5073195;28;20685;-58
2021/05/26 02:31:17;;;;;;;15.30;7.13;;;8.30;99.90;;;;;;5072818;28;20219;-58
2021/05/26 02:33:43;;;;;;;11.60;7.20;;;8.30;99.90;;;;;;5073573;28;20266;-56
2021/05/26 02:36:09;;;;;;;19.77;6.93;;;8.30;99.90;;;;;;5072870;28;20657;-57
2021/05/26 02:38:35;;;;;;;18.43;7.67;;;8.30;99.90;;;;;;5071810;28;20554;-56
2021/05/26 02:41:02;;;;;;;17.37;7.37;;;8.30;99.90;;;;;;5071509;28;20201;-58
2021/05/26 02:43:28;;;;;;;14.77;6.70;;;8.40;99.90;;;;;;5073222;28;20307;-56
2021/05/26 02:45:54;;;;;;;15.40;6.70;;;8.40;99.40;;;;;;5073339;28;20221;-57
2021/05/26 02:48:21;;;;;;;24.67;6.50;;;8.40;94.40;;;;;;5073641;28;20201;-58
2021/05/26 02:50:47;;;;;;;19.37;7.53;;;8.40;90.10;;;;;;5072545;28;20216;-58
2021/05/26 02:53:14;;;;;;;15.10;6.37;;;8.40;99.90;;;;;;5073473;28;20197;-60
2021/05/26 02:55:40;;;;;;;14.20;6.73;;;8.40;92.20;;;;;;5072206;28;20613;-58
2021/05/26 02:58:06;;;;;;;20.83;7.37;;;8.40;78.40;;;;;;5072029;28;20228;-59
2021/05/26 03:00:32;;;;;;;21.33;7.00;;;8.50;75.90;;;;;;5071225;28;20205;-59
2021/05/26 03:02:58;;;;;;;10.43;6.50;;;8.50;67.20;;;;;;5072789;28;20239;-58
2021/05/26 03:05:25;;;;;;;12.10;6.70;;;8.50;61.70;;;;;;5071414;28;20230;-58
2021/05/26 03:07:51;;;;;;;15.53;6.33;;;8.50;51.80;;;;;;5072772;28;20205;-58
2021/05/26 03:10:19;;;;;;;19.03;7.20;;;8.50;43.00;;;;;;5072873;28;20216;-57
2021/05/26 03:12:46;;;;;;;20.43;7.33;;;8.50;36.00;;;;;;5072398;28;20205;-58
2021/05/26 03:15:14;;;;;;;15.80;7.57;;;8.60;32.40;;;;;;5071837;28;20713;-58
2021/05/26 03:17:41;;;;;;;16.90;7.10;;;8.60;29.00;;;;;;5071105;28;20209;-58
2021/05/26 03:20:11;;;;;;;21.47;6.57;;;8.70;20.30;;;;;;5071192;28;20210;-57
2021/05/26 03:22:38;;;;;;;16.03;6.57;;;8.70;3.90;;;;;;5072454;28;20269;-56
2021/05/26 03:25:05;;;;;;;14.50;7.03;;;8.70;4.30;;;;;;5072153;28;20220;-57
2021/05/26 03:27:34;;;;;;;16.93;6.57;;;8.60;4.10;;;;;;5072061;28;20205;-57
2021/05/26 03:30:01;;;;;;;14.50;6.50;;;8.70;1.00;;;;;;5071929;28;20212;-57
2021/05/26 03:32:28;;;;;;;15.63;6.43;;;8.70;1.00;;;;;;5071775;28;20210;-58
2021/05/26 03:34:54;;;;;;;18.00;7.17;;;8.70;1.00;;;;;;5071831;28;20228;-57
2021/05/26 03:37:20;;;;;;;15.43;6.33;;;8.80;1.00;;;;;;5069470;28;20233;-57
2021/05/26 03:39:47;;;;;;;13.40;6.53;;;8.80;1.00;;;;;;5072069;28;20208;-57
2021/05/26 03:42:14;;;;;;;18.87;6.33;;;8.80;1.00;;;;;;5071618;28;20205;-58
2021/05/26 03:44:40;;;;;;;11.30;6.00;;;8.80;1.00;;;;;;5071591;28;20224;-59
2021/05/26 03:47:06;;;;;;;19.57;6.67;;;8.80;1.00;;;;;;5070978;28;20209;-58
2021/05/26 03:49:33;;;;;;;16.07;6.67;;;8.80;1.00;;;;;;5071421;28;20211;-58
2021/05/26 03:51:59;;;;;;;16.23;6.20;;;8.80;1.00;;;;;;5071721;28;20209;-58
2021/05/26 03:54:25;;;;;;;14.17;7.10;;;8.80;1.00;;;;;;5069736;28;20209;-57
2021/05/26 03:56:52;;;;;;;18.20;6.63;;;8.70;1.00;;;;;;5070905;28;20205;-58
2021/05/26 03:59:18;;;;;;;12.40;6.53;;;8.80;1.00;;;;;;5071408;28;20205;-57
2021/05/26 04:01:45;;;;;;;18.13;6.30;;;8.80;1.00;;;;;;5071392;28;20224;-58
2021/05/26 04:04:11;;;;;;;15.33;5.90;;;8.80;1.00;;;;;;5070080;28;20201;-56
2021/05/26 04:06:37;;;;;;;14.43;6.50;;;8.80;1.00;;;;;;5071831;28;20214;-57
2021/05/26 04:09:04;;;;;;;12.47;5.77;;;8.80;1.00;;;;;;5070621;28;20209;-58
2021/05/26 04:11:30;;;;;;;17.47;6.50;;;8.80;1.00;;;;;;5069689;28;20213;-57
2021/05/26 04:13:57;;;;;;;9.87;5.70;;;8.80;1.00;;;;;;5071818;28;20212;-57
2021/05/26 04:16:24;;;;;;;17.87;6.50;;;8.80;1.00;;;;;;5071613;28;20697;-56
2021/05/26 04:18:50;;;;;;;14.57;5.67;;;8.80;1.00;;;;;;5071668;28;20209;-58
2021/05/26 04:21:16;;;;;;;13.63;5.70;;;8.80;1.00;;;;;;5069085;28;20220;-58
2021/05/26 04:23:42;;;;;;;12.03;5.10;;;8.80;1.00;;;;;;5070250;28;20198;-56
2021/05/26 04:26:08;;;;;;;12.33;6.00;;;8.80;1.00;;;;;;5070438;28;20225;-56
2021/05/26 04:28:41;;;;;;;12.03;5.57;;;8.90;1.00;;;;;;5069408;28;20208;-58
2021/05/26 04:31:08;;;;;;;10.47;5.67;;;8.90;1.00;;;;;;5071108;28;20681;-58
2021/05/26 04:33:35;;;;;;;22.40;5.37;;;8.90;1.00;;;;;;5071406;28;20207;-58
2021/05/26 04:36:01;;;;;;;12.97;5.37;;;9.00;1.00;;;;;;5070414;28;20275;-57
2021/05/26 04:38:27;;;;;;;9.73;4.73;;;9.00;1.00;;;;;;5071964;28;20217;-59
2021/05/26 04:40:53;;;;;;;10.20;4.67;;;9.00;1.00;;;;;;5068415;28;20205;-56
2021/05/26 04:43:19;;;;;;;8.63;4.60;;;9.00;1.00;;;;;;5070429;28;20600;-59
2021/05/26 04:45:46;;;;;;;12.03;4.77;;;9.00;1.00;;;;;;5072399;28;20225;-60
2021/05/26 04:48:13;;;;;;;12.43;5.37;;;9.00;1.00;;;;;;5069368;28;20586;-59
2021/05/26 04:50:39;;;;;;;9.67;4.60;;;9.00;1.00;;;;;;5074032;28;20205;-60
2021/05/26 04:53:05;;;;;;;10.27;4.70;;;8.90;1.00;;;;;;5074855;28;20702;-59
2021/05/26 04:55:32;;;;;;;8.87;4.30;;;8.90;1.00;;;;;;5074142;28;20228;-58
2021/05/26 04:57:58;;;;;;;11.00;4.70;;;8.90;1.00;;;;;;5070706;28;20205;-60
2021/05/26 05:00:26;;;;;;;7.80;3.97;;;8.80;1.00;;;;;;5071671;28;20800;-59
2021/05/26 05:02:52;;;;;;;8.10;3.87;;;8.90;1.00;;;;;;5085623;28;20204;-60
2021/05/26 05:05:19;;;;;;;10.77;4.23;;;8.90;1.00;;;;;;5082029;28;20562;-59
2021/05/26 05:07:45;;;;;;;7.20;4.10;;;8.80;1.00;;;;;;5074478;28;20206;-60
2021/05/26 05:10:12;;;;;;;7.60;3.33;;;8.80;1.00;;;;;;5073291;28;20601;-59
2021/05/26 05:12:38;;;;;;;11.27;3.97;;;8.70;1.00;;;;;;5074854;28;20205;-59
2021/05/26 05:15:06;;;;;;;8.43;3.83;;;8.70;1.00;;;;;;5073817;28;20599;-57
2021/05/26 05:17:32;;;;;;;13.80;3.90;;;8.70;1.00;;;;;;5074733;28;20208;-60
2021/05/26 05:19:58;;;;;;;8.33;3.77;;;8.60;1.00;;;;;;5074224;28;20215;-57
2021/05/26 05:22:25;;;;;;;11.37;4.63;;;8.60;1.00;;;;;;5072721;28;20209;-59
2021/05/26 05:24:51;;;;;;;16.90;4.93;;;8.70;1.00;;;;;;5074148;28;20221;-60
2021/05/26 05:27:17;;;;;;;10.67;4.90;;;8.60;1.00;;;;;;5074911;28;20224;-59
2021/05/26 05:29:44;;;;;;;10.43;4.70;;;8.70;1.00;;;;;;5073989;28;20201;-60
2021/05/26 05:32:10;;;;;;;10.40;5.43;;;8.70;1.00;;;;;;5064111;28;20216;-61
2021/05/26 05:34:36;;;;;;;8.60;4.80;;;8.70;1.00;;;;;;5073512;28;20849;-60
2021/05/26 05:37:03;;;;;;;10.77;4.80;;;8.80;1.00;;;;;;5074285;28;20227;-60
2021/05/26 05:39:30;;;;;;;8.23;4.80;;;8.80;1.00;;;;;;5071810;28;20608;-59
2021/05/26 05:41:56;;;;;;;12.83;5.73;;;8.80;1.00;;;;;;5074367;28;20213;-59
2021/05/26 05:44:22;;;;;;;12.00;5.47;;;8.80;1.00;;;;;;5074373;28;20217;-58
2021/05/26 05:46:49;;;;;;;9.60;5.57;;;8.80;1.00;;;;;;5074141;28;20202;-57
2021/05/26 05:49:15;;;;;;;7.87;5.33;;;8.90;1.00;;;;;;5074066;28;20795;-57
2021/05/26 05:51:41;;;;;;;12.37;5.57;;;8.90;1.00;;;;;;5073506;28;20739;-59
2021/05/26 05:54:07;;;;;;;8.43;4.80;;;8.90;1.00;;;;;;5073567;28;20609;-60
2021/05/26 05:56:34;;;;;;;9.10;4.90;;;9.00;1.00;;;;;;5071324;28;20226;-59
2021/05/26 05:59:00;;;;;;;7.70;4.60;;;9.10;1.00;;;;;;5074092;28;20206;-57
2021/05/26 06:01:26;;;;;;;9.50;4.50;;;9.10;1.00;;;;;;5073767;28;20208;-61
2021/05/26 06:03:52;;;;;;;9.70;4.40;;;9.10;1.00;;;;;;5069998;28;20296;-64
2021/05/26 06:06:18;;;;;;;13.73;4.93;;;9.10;1.00;;;;;;5073286;28;20226;-61
2021/05/26 06:08:45;;;;;;;8.13;3.87;;;9.10;1.00;;;;;;5073118;28;20217;-57
2021/05/26 06:11:11;;;;;;;7.83;4.50;;;9.10;1.00;;;;;;5072536;28;20205;-60
2021/05/26 06:13:38;;;;;;;7.93;4.03;;;9.20;1.00;;;;;;5071176;28;20214;-60
2021/05/26 06:16:04;;;;;;;8.47;4.00;;;9.30;1.00;;;;;;5072412;28;20231;-59
2021/05/26 06:18:30;;;;;;;7.50;4.10;;;9.30;1.00;;;;;;5073128;28;20209;-59
2021/05/26 06:20:57;;;;;;;7.03;3.70;;;9.30;1.00;;;;;;5072824;28;20605;-58
2021/05/26 06:23:23;;;;;;;10.33;3.63;;;9.30;1.00;;;;;;5072648;28;20792;-56
2021/05/26 06:25:49;;;;;;;5.47;3.40;;;9.30;1.00;;;;;;5072620;28;20239;-56
2021/05/26 06:28:15;;;;;;;6.73;3.37;;;9.40;1.00;;;;;;5073481;28;20206;-55
2021/05/26 06:30:42;;;;;;;9.17;3.60;;;9.40;1.00;;;;;;5072717;28;20207;-54
2021/05/26 06:33:08;;;;;;;8.13;3.70;;;9.50;1.00;;;;;;5072877;28;20257;-63
2021/05/26 06:35:34;;;;;;;6.97;3.47;;;9.50;1.00;;;;;;5072405;28;20228;-65
2021/05/26 06:38:01;;;;;;;7.20;3.07;;;9.60;1.00;;;;;;5072175;28;20262;-65
2021/05/26 06:40:27;;;;;;;5.13;2.80;;;9.70;1.00;;;;;;5072586;28;20215;-64
2021/05/26 06:42:53;;;;;;;4.70;3.13;;;9.80;1.00;;;;;;5072572;28;20276;-64
2021/05/26 06:45:19;;;;;;;9.90;3.63;;;9.90;1.00;;;;;;5072509;28;20630;-61
2021/05/26 06:47:47;;;;;;;6.50;2.73;;;10.00;1.00;;;;;;5078621;28;20209;-61
2021/05/26 06:50:13;;;;;;;6.87;3.07;;;10.10;1.00;;;;;;5092502;28;20208;-62
2021/05/26 06:52:40;;;;;;;7.90;3.40;;;10.00;1.00;;;;;;5092819;28;20211;-57
2021/05/26 06:55:07;;;;;;;5.07;3.27;;;10.00;1.00;;;;;;5091626;28;20781;-59
2021/05/26 06:57:33;;;;;;;6.13;2.90;;;10.00;1.00;;;;;;5092269;28;20253;-64
2021/05/26 06:59:59;;;;;;;6.13;2.70;;;9.90;1.00;;;;;;5092402;28;20265;-63
2021/05/26 07:02:25;;;;;;;5.97;2.47;;;9.90;1.00;;;;;;5092564;28;20546;-61
2021/05/26 07:04:52;;;;;;;8.70;3.67;;;10.00;1.00;;;;;;5091612;28;20230;-55
2021/05/26 07:07:19;;;;;;;7.17;2.73;;;10.00;1.00;;;;;;5092478;28;20215;-58
2021/05/26 07:09:45;;;;;;;4.70;2.87;;;10.10;1.00;;;;;;5092365;28;20206;-59
2021/05/26 07:12:11;;;;;;;3.20;2.90;;;10.20;1.00;;;;;;5092401;28;20206;-59
2021/05/26 07:14:39;;;;;;;6.43;3.13;;;10.20;1.00;;;;;;5091805;28;20277;-57
2021/05/26 07:17:05;;;;;;;5.63;2.73;;;10.20;99.90;;;;;;5091843;28;20218;-57
2021/05/26 07:19:31;;;;;;;7.97;2.83;;;10.30;1.00;;;;;;5092456;28;20604;-58
2021/05/26 07:21:58;;;;;;;5.10;2.70;;;10.30;99.90;;;;;;5092740;28;20592;-61
2021/05/26 07:24:24;;;;;;;6.47;2.67;;;10.40;99.90;;;;;;5091851;28;20718;-61
2021/05/26 07:26:50;;;;;;;6.27;2.50;;;10.30;99.90;;;;;;5091837;28;20206;-62
2021/05/26 07:29:17;;;;;;;6.47;2.90;;;10.30;99.90;;;;;;5092770;28;20211;-62
2021/05/26 07:31:43;;;;;;;7.03;2.80;;;10.40;99.90;;;;;;5091897;28;20207;-61
2021/05/26 07:34:09;;;;;;;5.57;2.97;;;10.50;99.90;;;;;;5091379;28;20215;-58
2021/05/26 07:36:35;;;;;;;4.10;2.57;;;10.70;99.90;;;;;;5090429;28;20228;-58
2021/05/26 07:39:03;;;;;;;3.27;2.27;;;10.80;99.90;;;;;;5091910;28;20222;-58
2021/05/26 07:41:29;;;;;;;4.27;2.30;;;10.90;99.90;;;;;;5092341;28;20208;-58
2021/05/26 07:43:56;;;;;;;3.37;2.03;;;11.10;99.90;;;;;;5088499;28;20725;-60
2021/05/26 07:46:22;;;;;;;8.00;1.90;;;11.30;99.90;;;;;;5070970;28;20749;-62
2021/05/26 07:48:51;;;;;;;3.67;1.90;;;11.40;99.90;;;;;;5071374;28;20220;-58
2021/05/26 07:51:19;;;;;;;3.03;1.83;;;11.40;99.90;;;;;;5071299;28;20201;-57
2021/05/26 07:53:45;;;;;;;1.97;1.57;;;11.50;99.90;;;;;;5070207;28;20231;-57
2021/05/26 07:56:12;;;;;;;2.87;1.80;;;11.40;99.90;;;;;;5070769;28;20239;-60
2021/05/26 07:58:38;;;;;;;2.43;1.70;;;11.40;99.90;;;;;;5070837;28;20235;-58
2021/05/26 08:01:05;;;;;;;4.30;1.60;;;11.40;99.90;;;;;;5070853;28;20212;-60
2021/05/26 08:03:31;;;;;;;3.80;1.90;;;11.50;99.90;;;;;;5071349;28;20308;-62
2021/05/26 08:05:57;;;;;;;3.33;2.03;;;11.60;99.90;;;;;;5070293;28;20229;-58
2021/05/26 08:08:23;;;;;;;4.40;2.00;;;11.70;99.90;;;;;;5071351;28;20208;-59
2021/05/26 08:10:49;;;;;;;4.17;2.30;;;11.80;99.90;;;;;;5071117;28;20201;-63
2021/05/26 08:13:17;;;;;;;1.63;1.53;;;11.90;99.90;;;;;;5070757;28;20228;-60
2021/05/26 08:15:43;;;;;;;2.57;2.00;;;11.80;99.90;;;;;;5069648;28;20665;-60
2021/05/26 08:18:10;;;;;;;2.87;1.63;;;12.10;99.90;;;;;;5071294;28;20208;-62
2021/05/26 08:20:37;;;;;;;2.33;1.80;;;12.50;99.90;;;;;;5068489;28;20369;-60
2021/05/26 08:23:03;;;;;;;2.77;1.97;;;12.70;99.90;;;;;;5071005;28;20205;-61
2021/05/26 08:25:29;;;;;;;4.17;1.90;;;12.70;99.90;;;;;;5070579;28;20221;-61
2021/05/26 08:27:55;;;;;;;4.73;1.80;;;12.60;99.90;;;;;;5071150;28;20209;-63
2021/05/26 08:30:23;;;;;;;2.83;1.80;;;12.70;99.90;;;;;;5070818;28;20600;-61
2021/05/26 08:32:49;;;;;;;3.40;1.80;;;12.60;99.90;;;;;;5070112;28;20206;-56
2021/05/26 08:35:15;;;;;;;4.53;1.90;;;12.40;99.90;;;;;;5070810;28;20680;-61
2021/05/26 08:37:41;;;;;;;5.10;1.70;;;12.20;99.90;;;;;;5073164;28;20620;-59
2021/05/26 08:40:08;;;;;;;3.80;1.70;;;12.00;99.90;;;;;;5073289;28;20793;-61
2021/05/26 08:42:35;;;;;;;2.07;1.60;;;12.00;99.90;;;;;;5074742;28;20204;-61
2021/05/26 08:45:04;;;;;;;2.97;1.57;;;12.20;99.90;;;;;;5074144;28;20937;-61
2021/05/26 08:47:34;;;;;;;2.27;1.83;;;12.60;99.90;;;;;;5075398;28;20209;-64
2021/05/26 08:50:01;;;;;;;3.50;1.60;;;13.10;99.90;;;;;;5076979;28;20615;-64
2021/05/26 08:52:27;;;;;;;1.87;1.70;;;13.20;99.90;;;;;;5075507;28;20206;-61
2021/05/26 08:54:53;;;;;;;2.63;1.80;;;13.30;99.90;;;;;;5073159;28;20234;-63
2021/05/26 08:57:19;;;;;;;4.03;2.07;;;13.10;99.90;;;;;;5075660;28;20690;-65
2021/05/26 08:59:45;;;;;;;2.80;1.97;;;12.90;99.90;;;;;;5075238;28;20727;-61
2021/05/26 09:02:12;;;;;;;3.17;1.67;;;12.60;99.90;;;;;;5074676;28;20862;-64
2021/05/26 09:04:40;;;;;;;2.57;1.73;;;12.40;99.90;;;;;;5074409;28;20224;-61
2021/05/26 09:07:12;;;;;;;1.60;1.50;;;12.30;99.90;;;;;;5073848;28;20208;-60
2021/05/26 09:09:53;;;;;;;2.43;1.40;;;12.40;99.90;;;;;;5074118;28;20201;-61
2021/05/26 09:12:30;;;;;;;1.77;1.60;;;12.80;99.90;;;;;;5076343;28;20201;-63
2021/05/26 09:15:01;;;;;;;2.50;1.60;;;12.70;99.90;;;;;;5072174;28;20234;-63
2021/05/26 09:17:29;;;;;;;2.67;1.60;;;12.40;99.90;;;;;;5074318;28;20300;-67
2021/05/26 09:20:15;;;;;;;1.60;1.50;;;12.40;99.90;;;;;;5073898;28;20202;-67
2021/05/26 09:23:00;;;;;;;1.87;1.57;;;12.60;99.90;;;;;;5074170;28;20726;-61
2021/05/26 09:25:27;;;;;;;4.23;1.90;;;12.80;99.90;;;;;;5074063;28;20594;-63
2021/05/26 09:28:16;;;;;;;2.73;1.83;;;12.80;99.90;;;;;;5074283;28;20210;-60
2021/05/26 09:30:43;;;;;;;2.40;1.80;;;12.70;99.90;;;;;;5073809;28;20224;-60
2021/05/26 09:33:29;;;;;;;2.67;2.47;;;12.70;99.90;;;;;;5072147;28;20205;-61
2021/05/26 09:36:20;;;;;;;3.57;2.43;;;12.70;99.90;;;;;;5073908;28;20228;-59
2021/05/26 09:38:53;;;;;;;2.27;1.70;;;13.00;99.90;;;;;;5074215;28;20211;-65
2021/05/26 09:41:22;;;;;;;2.30;1.87;;;13.50;99.90;;;;;;5073600;28;20756;-66
2021/05/26 09:43:51;;;;;;;2.97;2.13;;;13.80;99.90;;;;;;5073509;28;20205;-65
2021/05/26 09:46:32;;;;;;;2.50;1.90;;;13.80;99.90;;;;;;5073250;28;20230;-65
2021/05/26 09:49:10;;;;;;;1.87;1.70;;;14.00;99.90;;;;;;5073998;28;20298;-64
2021/05/26 09:51:38;;;;;;;2.33;1.93;;;14.30;99.90;;;;;;5071186;28;20212;-66
2021/05/26 09:54:10;;;;;;;3.30;2.00;;;14.10;99.90;;;;;;5073256;28;20223;-65
2021/05/26 09:56:36;;;;;;;3.03;1.80;;;14.00;99.90;;;;;;5073388;28;20573;-60
2021/05/26 09:59:03;;;;;;;2.27;1.70;;;13.90;99.90;;;;;;5073781;28;20233;-65
2021/05/26 10:01:31;;;;;;;4.10;2.13;;;13.80;99.90;;;;;;5073583;28;20217;-65
2021/05/26 10:03:57;;;;;;;3.17;1.80;;;13.90;99.90;;;;;;5072716;28;20205;-66
2021/05/26 10:06:24;;;;;;;2.37;1.80;;;14.30;99.90;;;;;;5073719;28;20225;-64
2021/05/26 10:08:52;;;;;;;2.17;1.40;;;14.30;99.90;;;;;;5071667;28;20201;-60
2021/05/26 10:11:19;;;;;;;1.80;1.53;;;14.30;99.90;;;;;;5073324;28;20223;-59
2021/05/26 10:13:46;;;;;;;1.90;1.40;;;14.00;99.90;;;;;;5072824;28;20626;-66
2021/05/26 10:16:15;;;;;;;1.97;1.50;;;13.90;99.90;;;;;;5073128;28;20225;-64
2021/05/26 10:18:42;;;;;;;1.93;1.70;;;13.80;99.90;;;;;;5073226;28;20708;-63
2021/05/26 10:21:09;;;;;;;1.50;1.40;;;13.80;99.90;;;;;;5072909;28;20533;-66
2021/05/26 10:23:36;;;;;;;1.40;1.13;;;13.90;99.90;;;;;;5071292;28;20209;-65
2021/05/26 10:26:03;;;;;;;1.20;1.10;;;13.70;99.90;;;;;;5073137;28;20213;-61
2021/05/26 10:28:31;;;;;;;1.80;1.30;;;13.90;99.90;;;;;;5073333;28;20221;-66
2021/05/26 10:30:58;;;;;;;1.97;1.23;;;14.30;99.90;;;;;;5072982;28;20252;-60
2021/05/26 10:33:50;;;;;;;3.03;1.00;;;14.60;99.90;;;;;;5072215;28;20215;-66
2021/05/26 10:36:17;;;;;;;2.63;1.17;;;14.50;99.90;;;;;;5072778;28;20233;-64
2021/05/26 10:38:58;;;;;;;1.97;1.00;;;14.30;99.90;;;;;;5072717;28;20546;-60
2021/05/26 10:41:25;;;;;;;2.47;1.40;;;14.50;99.90;;;;;;5072570;28;20236;-60
2021/05/26 10:43:54;;;;;;;2.57;1.10;;;14.80;99.90;;;;;;5072467;28;20205;-61
2021/05/26 10:46:35;;;;;;;1.43;0.90;;;14.80;99.90;;;;;;5072895;28;20228;-66
2021/05/26 10:49:06;;;;;;;1.67;0.87;;;15.00;99.90;;;;;;5072408;28;20573;-64
2021/05/26 10:52:06;;;;;;;1.83;0.90;;;15.10;99.90;;;;;;5072616;28;20205;-60
2021/05/26 10:55:03;;;;;;;0.70;0.70;;;15.00;99.90;;;;;;5071937;28;20319;-63
2021/05/26 10:57:51;;;;;;;2.20;0.97;;;15.10;99.90;;;;;;5069879;28;20378;-62
2021/05/26 11:00:28;;;;;;;1.90;0.97;;;14.80;99.90;;;;;;5071611;28;20237;-62
2021/05/26 11:03:41;;;;;;;3.00;0.80;;;14.90;99.90;;;;;;5071945;28;20862;-63
2021/05/26 11:06:38;;;;;;;1.13;0.90;;;14.60;99.90;;;;;;5071790;28;20225;-63
2021/05/26 11:09:09;;;;;;;2.00;1.20;;;14.80;99.90;;;;;;5072974;28;20240;-63
2021/05/26 11:11:48;;;;;;;1.67;1.10;;;14.80;99.90;;;;;;5072911;28;20231;-63
2021/05/26 11:14:33;;;;;;;1.40;0.93;;;14.80;99.90;;;;;;5070422;28;20205;-62
2021/05/26 11:17:29;;;;;;;1.17;0.80;;;14.90;99.90;;;;;;5072494;28;20267;-63
2021/05/26 11:20:15;;;;;;;0.90;0.80;;;15.10;99.90;;;;;;5072076;28;20205;-61
2021/05/26 11:22:42;;;;;;;2.47;0.90;;;15.30;99.90;;;;;;5072334;28;20197;-62
2021/05/26 11:25:09;;;;;;;1.37;0.83;;;15.30;99.90;;;;;;5072111;28;20229;-59
2021/05/26 11:27:36;;;;;;;1.67;0.77;;;15.50;99.90;;;;;;5073071;28;20205;-62
2021/05/26 11:30:05;;;;;;;1.00;0.80;;;15.80;99.90;;;;;;5071389;28;20205;-61
2021/05/26 11:32:32;;;;;;;1.27;0.70;;;15.90;99.90;;;;;;5072089;28;20266;-66
2021/05/26 11:35:02;;;;;;;1.67;0.97;;;15.90;99.90;;;;;;5071538;28;20315;-64
2021/05/26 11:37:29;;;;;;;1.87;1.07;;;15.90;99.90;;;;;;5072189;28;20209;-67
2021/05/26 11:39:56;;;;;;;1.90;1.07;;;15.80;99.90;;;;;;5085234;28;20200;-66
2021/05/26 11:42:25;;;;;;;3.20;1.20;;;15.30;99.90;;;;;;5092350;28;20200;-67
2021/05/26 11:44:56;;;;;;;2.50;1.10;;;15.10;99.90;;;;;;5092259;28;20269;-65
2021/05/26 11:47:31;;;;;;;1.40;0.97;;;15.30;99.90;;;;;;5075424;28;20212;-63
2021/05/26 11:49:58;;;;;;;1.07;0.97;;;15.40;99.90;;;;;;5071263;28;20212;-61
2021/05/26 11:52:25;;;;;;;1.40;1.10;;;15.60;99.90;;;;;;5071317;28;20250;-61
2021/05/26 11:54:56;;;;;;;1.97;0.87;;;15.50;99.90;;;;;;5070870;28;20655;-61
2021/05/26 11:57:31;;;;;;;1.70;1.00;;;15.40;99.90;;;;;;5071451;28;20573;-58
2021/05/26 11:59:57;;;;;;;1.43;1.10;;;15.40;99.90;;;;;;5071431;28;20295;-60
2021/05/26 12:02:24;;;;;;;1.33;0.70;;;15.20;99.90;;;;;;5069567;28;20233;-61
2021/05/26 12:04:51;;;;;;;1.93;0.90;;;15.50;99.90;;;;;;5070057;28;20717;-61
2021/05/26 12:07:23;;;;;;;1.20;0.70;;;15.60;99.90;;;;;;5071450;28;20208;-61
2021/05/26 12:09:54;;;;;;;6.00;1.40;;;15.50;99.90;;;;;;5071093;28;20300;-59
2021/05/26 12:12:22;;;;;;;1.43;0.83;;;15.50;99.90;;;;;;5071411;28;20300;-60
2021/05/26 12:14:49;;;;;;;1.83;1.00;;;15.50;99.90;;;;;;5071113;28;20229;-60
2021/05/26 12:17:16;;;;;;;1.40;1.00;;;15.90;99.90;;;;;;5071406;28;20689;-67
2021/05/26 12:19:43;;;;;;;2.23;1.00;;;16.00;99.90;;;;;;5070271;28;20229;-66
2021/05/26 12:22:17;;;;;;;1.93;1.00;;;16.00;99.90;;;;;;5071424;28;20216;-67
2021/05/26 12:24:51;;;;;;;3.13;1.30;;;16.10;99.90;;;;;;5070964;28;20602;-66
2021/05/26 12:27:35;;;;;;;2.23;1.00;;;15.80;99.90;;;;;;5072962;28;20207;-67
2021/05/26 12:30:22;;;;;;;1.00;0.90;;;15.50;99.90;;;;;;5050880;28;20252;-67
2021/05/26 12:32:50;;;;;;;1.57;1.00;;;15.50;99.90;;;;;;5051147;28;20212;-66
2021/05/26 12:35:20;;;;;;;2.27;1.00;;;15.40;99.90;;;;;;5061531;28;20231;-65
2021/05/26 12:37:48;;;;;;;3.80;1.20;;;15.90;99.90;;;;;;5070987;28;20620;-65
2021/05/26 12:40:36;;;;;;;2.60;1.47;;;16.20;99.90;;;;;;5070990;28;20569;-65
2021/05/26 12:43:03;;;;;;;2.13;1.10;;;16.40;99.90;;;;;;5071066;28;20607;-65
2021/05/26 12:45:31;;;;;;;1.80;1.27;;;16.50;99.90;;;;;;5070352;28;20229;-66
2021/05/26 12:47:59;;;;;;;1.47;1.10;;;16.80;99.90;;;;;;5070556;28;20593;-65
2021/05/26 12:50:28;;;;;;;4.63;1.37;;;16.80;99.90;;;;;;5070738;28;20208;-66
2021/05/26 12:53:05;;;;;;;2.03;1.50;;;17.00;99.90;;;;;;5070504;28;20319;-66
2021/05/26 12:55:33;;;;;;;3.17;1.33;;;17.30;99.90;;;;;;5070517;28;20282;-67
2021/05/26 12:58:01;;;;;;;2.67;1.30;;;16.50;99.90;;;;;;5071249;28;20584;-67
2021/05/26 13:00:27;;;;;;;3.13;1.90;;;16.30;99.90;;;;;;5071154;28;20212;-67
2021/05/26 13:03:05;;;;;;;4.97;2.30;;;15.60;99.90;;;;;;5070968;28;20209;-63